Time;durP1;ratioP1;P1;durP2;ratioP2;P2;SDS_P1;SDS_P2;PMS_P1;PMS_P2;Temp;Humidity;BMP_temperature;BMP_pressure;BME280_temperature;BME280_humidity;BME280_pressure;Samples;Min_cycle;Max_cycle;Signal;HPM_P1;HPM_P2
2023/07/15 00:01:34;;;;;;;;;;;;;;;;;;5030113;28;20015;-71
2023/07/15 00:04:00;;;;;;;;;;;;;;;;;;5030819;28;19925;-71
2023/07/15 00:06:28;;;;;;;;;;;;;;;;;;5030682;28;20264;-70
2023/07/15 00:08:55;;;;;;;;;;;;;;;;;;5031020;28;19931;-70
2023/07/15 00:11:25;;;;;;;;;;;;;;;;;;5030701;28;20314;-70
2023/07/15 00:13:52;;;;;;;;;;;;;;;;;;5031130;28;20017;-69
2023/07/15 00:16:18;;;;;;;;;;;;;;;;;;5030551;28;19996;-70
2023/07/15 00:18:45;;;;;;;;;;;;;;;;;;5030612;28;19925;-69
2023/07/15 00:21:16;;;;;;;;;;;;;;;;;;5029996;28;19925;-70
2023/07/15 00:23:44;;;;;;;;;;;;;;;;;;5034457;28;19951;-71
2023/07/15 00:26:10;;;;;;;;;;;;;;;;;;5034729;28;19968;-70
2023/07/15 00:28:37;;;;;;;;;;;;;;;;;;5035700;28;19932;-70
2023/07/15 00:31:11;;;;;;;;;;;;;;;;;;5034974;28;19983;-70
2023/07/15 00:33:37;;;;;;;;;;;;;;;;;;5035119;28;19925;-70
2023/07/15 00:36:04;;;;;;;;;;;;;;;;;;5034092;28;19929;-70
2023/07/15 00:38:31;;;;;;;;;;;;;;;;;;5034178;28;20405;-70
2023/07/15 00:40:59;;;;;;;;;;;;;;;;;;5033874;28;19925;-70
2023/07/15 00:43:44;;;;;;;;;;;;;;;;;;5034233;28;19975;-71
2023/07/15 00:46:34;;;;;;;;;;;;;;;;;;5034784;28;19932;-70
2023/07/15 00:49:04;;;;;;;;;;;;;;;;;;5018500;28;19947;-70
2023/07/15 00:51:32;;;;;;;;;;;;;;;;;;5033912;28;19925;-70
2023/07/15 00:53:59;;;;;;;;;;;;;;;;;;5032194;28;20302;-70
2023/07/15 00:56:26;;;;;;;;;;;;;;;;;;5034273;28;20375;-70
2023/07/15 00:58:53;;;;;;;;;;;;;;;;;;5033225;28;20342;-70
2023/07/15 01:01:19;;;;;;;;;;;;;;;;;;5033762;28;19925;-70
2023/07/15 01:03:46;;;;;;;;;;;;;;;;;;5033784;28;20172;-69
2023/07/15 01:06:14;;;;;;;;;;;;;;;;;;5033919;28;19935;-71
2023/07/15 01:08:40;;;;;;;;;;;;;;;;;;5033354;28;19965;-70
2023/07/15 01:11:07;;;;;;;;;;;;;;;;;;5033279;28;19932;-69
2023/07/15 01:13:34;;;;;;;;;;;;;;;;;;5033270;28;19932;-70
2023/07/15 01:16:00;;;;;;;;;;;;;;;;;;5034147;28;19925;-70
2023/07/15 01:18:28;;;;;;;;;;;;;;;;;;5033837;28;19925;-70
2023/07/15 01:20:58;;;;;;;;;;;;;;;;;;5032989;28;19968;-70
2023/07/15 01:23:25;;;;;;;;;;;;;;;;;;5033939;28;20475;-70
2023/07/15 01:25:52;;;;;;;;;;;;;;;;;;5033171;28;19932;-70
2023/07/15 01:28:18;;;;;;;;;;;;;;;;;;5033624;28;19929;-70
2023/07/15 01:30:44;;;;;;;;;;;;;;;;;;5032823;28;19948;-70
2023/07/15 01:33:15;;;;;;;;;;;;;;;;;;5032612;28;19925;-70
2023/07/15 01:35:42;;;;;;;;;;;;;;;;;;5032746;28;20370;-71
2023/07/15 01:38:09;;;;;;;;;;;;;;;;;;5032809;28;19925;-71
2023/07/15 01:40:37;;;;;;;;;;;;;;;;;;5032801;28;19971;-70
2023/07/15 01:43:04;;;;;;;;;;;;;;;;;;5033366;28;20425;-70
2023/07/15 01:45:31;;;;;;;;;;;;;;;;;;5032804;28;19972;-70
2023/07/15 01:47:57;;;;;;;;;;;;;;;;;;5032859;28;19925;-71
2023/07/15 01:50:23;;;;;;;;;;;;;;;;;;5031936;28;19939;-70
2023/07/15 01:52:50;;;;;;;;;;;;;;;;;;5032985;28;19975;-70
2023/07/15 01:55:16;;;;;;;;;;;;;;;;;;5032488;28;19929;-70
2023/07/15 01:57:44;;;;;;;;;;;;;;;;;;5031585;28;19932;-69
2023/07/15 02:00:16;;;;;;;;;;;;;;;;;;5032529;28;19933;-70
2023/07/15 02:02:42;;;;;;;;;;;;;;;;;;5032328;28;19987;-70
2023/07/15 02:05:09;;;;;;;;;;;;;;;;;;5032611;28;20033;-70
2023/07/15 02:07:35;;;;;;;;;;;;;;;;;;5031952;28;20008;-69
2023/07/15 02:10:02;;;;;;;;;;;;;;;;;;5032391;28;20391;-71
2023/07/15 02:12:28;;;;;;;;;;;;;;;;;;5031981;28;19965;-70
2023/07/15 02:14:56;;;;;;;;;;;;;;;;;;5032505;28;20371;-69
2023/07/15 02:17:23;;;;;;;;;;;;;;;;;;5032141;28;19972;-69
2023/07/15 02:19:49;;;;;;;;;;;;;;;;;;5031987;28;19987;-69
2023/07/15 02:22:15;;;;;;;;;;;;;;;;;;5031751;28;19931;-69
2023/07/15 02:24:42;;;;;;;;;;;;;;;;;;5033364;28;20252;-69
2023/07/15 02:27:08;;;;;;;;;;;;;;;;;;5032063;28;19931;-70
2023/07/15 02:29:34;;;;;;;;;;;;;;;;;;5031968;28;20434;-70
2023/07/15 02:32:02;;;;;;;;;;;;;;;;;;5032111;28;20019;-69
2023/07/15 02:34:29;;;;;;;;;;;;;;;;;;5032398;28;20335;-69
2023/07/15 02:36:56;;;;;;;;;;;;;;;;;;5031853;28;19925;-70
2023/07/15 02:39:22;;;;;;;;;;;;;;;;;;5032037;28;19925;-70
2023/07/15 02:41:50;;;;;;;;;;;;;;;;;;5031881;28;19925;-71
2023/07/15 02:44:16;;;;;;;;;;;;;;;;;;5031676;28;19925;-70
2023/07/15 02:46:42;;;;;;;;;;;;;;;;;;5031940;28;19932;-70
2023/07/15 02:49:11;;;;;;;;;;;;;;;;;;5031324;28;19925;-71
2023/07/15 02:51:37;;;;;;;;;;;;;;;;;;5031539;28;19929;-70
2023/07/15 02:54:03;;;;;;;;;;;;;;;;;;5031464;28;20038;-70
2023/07/15 02:56:30;;;;;;;;;;;;;;;;;;5031848;28;19929;-70
2023/07/15 02:58:56;;;;;;;;;;;;;;;;;;5029715;28;19932;-70
2023/07/15 03:01:23;;;;;;;;;;;;;;;;;;5031415;28;19925;-69
2023/07/15 03:03:49;;;;;;;;;;;;;;;;;;5031018;28;19925;-71
2023/07/15 03:06:17;;;;;;;;;;;;;;;;;;5031534;28;20007;-70
2023/07/15 03:08:44;;;;;;;;;;;;;;;;;;5031575;28;20005;-71
2023/07/15 03:11:11;;;;;;;;;;;;;;;;;;5030565;28;20019;-70
2023/07/15 03:13:38;;;;;;;;;;;;;;;;;;5031510;28;20016;-71
2023/07/15 03:16:05;;;;;;;;;;;;;;;;;;5031043;28;19931;-70
2023/07/15 03:18:31;;;;;;;;;;;;;;;;;;5031177;28;19925;-70
2023/07/15 03:20:58;;;;;;;;;;;;;;;;;;5030521;28;20025;-70
2023/07/15 03:23:26;;;;;;;;;;;;;;;;;;5031295;28;20008;-69
2023/07/15 03:25:52;;;;;;;;;;;;;;;;;;5031012;28;20405;-71
2023/07/15 03:28:18;;;;;;;;;;;;;;;;;;5031838;28;20298;-70
2023/07/15 03:30:48;;;;;;;;;;;;;;;;;;5031431;28;19933;-70
2023/07/15 03:33:14;;;;;;;;;;;;;;;;;;5031211;28;19929;-70
2023/07/15 03:35:44;;;;;;;;;;;;;;;;;;5031030;28;19925;-70
2023/07/15 03:38:11;;;;;;;;;;;;;;;;;;5031471;28;19932;-70
2023/07/15 03:40:38;;;;;;;;;;;;;;;;;;5030815;28;19931;-70
2023/07/15 03:43:05;;;;;;;;;;;;;;;;;;5030889;28;19929;-69
2023/07/15 03:45:31;;;;;;;;;;;;;;;;;;5030782;28;20012;-70
2023/07/15 03:47:58;;;;;;;;;;;;;;;;;;5053807;22;20340;-66
2023/07/15 03:50:25;;;;;;;;;;;;;;;;;;5050354;28;19931;-66
2023/07/15 03:52:51;;;;;;;;;;;;;;;;;;5049973;28;19924;-66
2023/07/15 03:55:17;;;;;;;;;;;;;;;;;;5050420;28;19925;-66
2023/07/15 03:57:45;;;;;;;;;;;;;;;;;;5049284;28;20271;-66
2023/07/15 04:00:16;;;;;;;;;;;;;;;;;;5049020;28;20250;-66
2023/07/15 04:02:44;;;;;;;;;;;;;;;;;;5049983;28;19948;-66
2023/07/15 04:05:11;;;;;;;;;;;;;;;;;;5050640;28;19929;-66
2023/07/15 04:07:37;;;;;;;;;;;;;;;;;;5049909;28;20445;-66
2023/07/15 04:10:04;;;;;;;;;;;;;;;;;;5050493;28;19931;-66
2023/07/15 04:12:30;;;;;;;;;;;;;;;;;;5049744;28;19925;-66
2023/07/15 04:14:58;;;;;;;;;;;;;;;;;;5050238;28;20384;-66
2023/07/15 04:17:25;;;;;;;;;;;;;;;;;;5050013;28;19925;-66
2023/07/15 04:19:51;;;;;;;;;;;;;;;;;;5049539;28;19928;-66
2023/07/15 04:22:18;;;;;;;;;;;;;;;;;;5050239;28;19925;-66
2023/07/15 04:24:44;;;;;;;;;;;;;;;;;;5049624;28;19924;-67
2023/07/15 04:27:11;;;;;;;;;;;;;;;;;;5050466;28;20297;-67
2023/07/15 04:29:37;;;;;;;;;;;;;;;;;;5049531;28;20305;-66
2023/07/15 04:32:06;;;;;;;;;;;;;;;;;;5049940;28;19925;-66
2023/07/15 04:34:32;;;;;;;;;;;;;;;;;;5049531;28;20309;-66
2023/07/15 04:36:58;;;;;;;;;;;;;;;;;;5050144;28;19932;-66
2023/07/15 04:39:25;;;;;;;;;;;;;;;;;;5049814;28;19947;-66
2023/07/15 04:41:52;;;;;;;;;;;;;;;;;;5049748;28;20442;-66
2023/07/15 04:44:18;;;;;;;;;;;;;;;;;;5049509;28;19929;-66
2023/07/15 04:46:44;;;;;;;;;;;;;;;;;;5050294;28;19925;-66
2023/07/15 04:49:12;;;;;;;;;;;;;;;;;;5049771;28;20367;-67
2023/07/15 04:51:39;;;;;;;;;;;;;;;;;;5049416;28;19925;-67
2023/07/15 04:54:05;;;;;;;;;;;;;;;;;;5049904;28;19924;-67
2023/07/15 04:56:32;;;;;;;;;;;;;;;;;;5049310;28;20014;-67
2023/07/15 04:58:58;;;;;;;;;;;;;;;;;;5050060;28;20331;-66
2023/07/15 05:01:25;;;;;;;;;;;;;;;;;;5048991;28;19974;-66
2023/07/15 05:03:52;;;;;;;;;;;;;;;;;;5048528;28;19925;-66
2023/07/15 05:06:21;;;;;;;;;;;;;;;;;;5049290;28;19931;-67
2023/07/15 05:08:47;;;;;;;;;;;;;;;;;;5049804;28;19928;-66
2023/07/15 05:11:15;;;;;;;;;;;;;;;;;;5052715;28;19935;-66
2023/07/15 05:13:42;;;;;;;;;;;;;;;;;;5053372;28;19929;-66
2023/07/15 05:16:09;;;;;;;;;;;;;;;;;;5052627;28;19970;-66
2023/07/15 05:18:36;;;;;;;;;;;;;;;;;;5053264;28;20337;-66
2023/07/15 05:21:02;;;;;;;;;;;;;;;;;;5052525;28;20468;-66
2023/07/15 05:23:31;;;;;;;;;;;;;;;;;;5052756;28;20290;-66
2023/07/15 05:25:57;;;;;;;;;;;;;;;;;;5053129;28;20364;-66
2023/07/15 05:28:26;;;;;;;;;;;;;;;;;;5052523;28;19925;-66
2023/07/15 05:30:52;;;;;;;;;;;;;;;;;;5052643;28;20390;-66
2023/07/15 05:33:18;;;;;;;;;;;;;;;;;;5052676;28;19924;-66
2023/07/15 05:35:45;;;;;;;;;;;;;;;;;;5052790;28;19929;-66
2023/07/15 05:38:11;;;;;;;;;;;;;;;;;;5052471;28;19932;-67
2023/07/15 05:40:41;;;;;;;;;;;;;;;;;;5052804;28;20381;-66
2023/07/15 05:43:08;;;;;;;;;;;;;;;;;;5052878;28;19932;-66
2023/07/15 05:45:35;;;;;;;;;;;;;;;;;;5052921;28;19925;-66
2023/07/15 05:48:01;;;;;;;;;;;;;;;;;;5052295;28;19972;-66
2023/07/15 05:50:32;;;;;;;;;;;;;;;;;;5052295;28;19951;-66
2023/07/15 05:52:58;;;;;;;;;;;;;;;;;;5052530;28;19925;-66
2023/07/15 05:55:25;;;;;;;;;;;;;;;;;;5052800;28;19931;-66
2023/07/15 05:57:53;;;;;;;;;;;;;;;;;;5052045;28;19931;-66
2023/07/15 06:00:19;;;;;;;;;;;;;;;;;;5052239;28;19924;-66
2023/07/15 06:02:45;;;;;;;;;;;;;;;;;;5052146;28;20344;-66
2023/07/15 06:05:12;;;;;;;;;;;;;;;;;;5050850;28;19925;-66
2023/07/15 06:07:38;;;;;;;;;;;;;;;;;;5052133;28;19929;-65
2023/07/15 06:10:05;;;;;;;;;;;;;;;;;;5051524;28;19931;-67
2023/07/15 06:12:31;;;;;;;;;;;;;;;;;;5052167;28;19935;-67
2023/07/15 06:14:59;;;;;;;;;;;;;;;;;;5051728;28;19925;-66
2023/07/15 06:17:26;;;;;;;;;;;;;;;;;;5052172;28;19925;-66
2023/07/15 06:19:52;;;;;;;;;;;;;;;;;;5051225;28;20131;-66
2023/07/15 06:22:18;;;;;;;;;;;;;;;;;;5051959;28;19925;-66
2023/07/15 06:24:46;;;;;;;;;;;;;;;;;;5051475;28;20377;-66
2023/07/15 06:27:13;;;;;;;;;;;;;;;;;;5051914;28;20372;-66
2023/07/15 06:29:39;;;;;;;;;;;;;;;;;;5051285;28;19932;-66
2023/07/15 06:32:07;;;;;;;;;;;;;;;;;;5052004;28;20277;-67
2023/07/15 06:34:33;;;;;;;;;;;;;;;;;;5052193;28;19925;-66
2023/07/15 06:37:00;;;;;;;;;;;;;;;;;;5052589;28;20015;-66
2023/07/15 06:39:26;;;;;;;;;;;;;;;;;;5052627;28;19983;-66
2023/07/15 06:41:53;;;;;;;;;;;;;;;;;;5052211;28;20409;-67
2023/07/15 06:44:19;;;;;;;;;;;;;;;;;;5052826;28;19964;-66
2023/07/15 06:46:46;;;;;;;;;;;;;;;;;;5050888;28;19929;-66
2023/07/15 06:49:13;;;;;;;;;;;;;;;;;;5051429;28;19925;-66
2023/07/15 06:51:40;;;;;;;;;;;;;;;;;;5050861;28;20012;-67
2023/07/15 06:54:06;;;;;;;;;;;;;;;;;;5051615;28;20396;-67
2023/07/15 06:56:33;;;;;;;;;;;;;;;;;;5050978;28;20380;-66
2023/07/15 06:58:59;;;;;;;;;;;;;;;;;;5051284;28;19931;-66
2023/07/15 07:01:25;;;;;;;;;;;;;;;;;;5050384;28;19931;-67
2023/07/15 07:03:52;;;;;;;;;;;;;;;;;;5051151;28;19931;-66
2023/07/15 07:06:20;;;;;;;;;;;;;;;;;;5049843;28;20308;-66
2023/07/15 07:08:47;;;;;;;;;;;;;;;;;;5030579;28;19932;-67
2023/07/15 07:11:13;;;;;;;;;;;;;;;;;;5031204;28;19925;-67
2023/07/15 07:13:39;;;;;;;;;;;;;;;;;;5030201;28;19925;-66
2023/07/15 07:16:06;;;;;;;;;;;;;;;;;;5030718;28;19925;-66
2023/07/15 07:18:32;;;;;;;;;;;;;;;;;;5030958;28;20007;-66
2023/07/15 07:20:59;;;;;;;;;;;;;;;;;;5030643;28;19925;-66
2023/07/15 07:23:27;;;;;;;;;;;;;;;;;;5030655;28;20303;-67
2023/07/15 07:25:53;;;;;;;;;;;;;;;;;;5030843;28;19925;-67
2023/07/15 07:28:21;;;;;;;;;;;;;;;;;;5030565;28;19947;-66
2023/07/15 07:30:48;;;;;;;;;;;;;;;;;;5030179;28;19926;-71
2023/07/15 07:33:14;;;;;;;;;;;;;;;;;;5029614;28;19925;-73
2023/07/15 07:35:41;;;;;;;;;;;;;;;;;;5030820;28;19925;-72
2023/07/15 07:38:07;;;;;;;;;;;;;;;;;;5030275;28;19925;-73
2023/07/15 07:40:35;;;;;;;;;;;;;;;;;;5030389;28;19925;-72
2023/07/15 07:43:01;;;;;;;;;;;;;;;;;;5030247;28;19948;-72
2023/07/15 07:45:28;;;;;;;;;;;;;;;;;;5030467;28;19949;-71
2023/07/15 07:47:54;;;;;;;;;;;;;;;;;;5030651;28;20302;-71
2023/07/15 07:50:21;;;;;;;;;;;;;;;;;;5029645;28;20286;-71
2023/07/15 07:52:47;;;;;;;;;;;;;;;;;;5030432;28;20382;-71
2023/07/15 07:55:14;;;;;;;;;;;;;;;;;;5030538;28;20380;-72
2023/07/15 07:57:41;;;;;;;;;;;;;;;;;;5030229;28;20290;-68
2023/07/15 08:00:09;;;;;;;;;;;;;;;;;;5030198;28;19932;-67
2023/07/15 08:02:35;;;;;;;;;;;;;;;;;;5030829;28;19925;-67
2023/07/15 08:05:01;;;;;;;;;;;;;;;;;;5030179;28;19929;-66
2023/07/15 08:07:28;;;;;;;;;;;;;;;;;;5030417;28;20017;-68
2023/07/15 08:09:54;;;;;;;;;;;;;;;;;;5029377;28;20016;-67
2023/07/15 08:12:20;;;;;;;;;;;;;;;;;;5040041;28;19925;-67
2023/07/15 08:14:48;;;;;;;;;;;;;;;;;;5050439;28;20244;-67
2023/07/15 08:17:15;;;;;;;;;;;;;;;;;;5050104;28;19932;-67
2023/07/15 08:19:41;;;;;;;;;;;;;;;;;;5050113;28;19946;-67
2023/07/15 08:22:07;;;;;;;;;;;;;;;;;;5049705;28;19925;-67
2023/07/15 08:24:34;;;;;;;;;;;;;;;;;;5050247;28;20401;-67
2023/07/15 08:27:02;;;;;;;;;;;;;;;;;;5049296;28;19929;-68
2023/07/15 08:29:28;;;;;;;;;;;;;;;;;;5049866;28;19925;-67
2023/07/15 08:31:56;;;;;;;;;;;;;;;;;;5049830;28;20416;-67
2023/07/15 08:34:23;;;;;;;;;;;;;;;;;;5050117;28;19931;-67
2023/07/15 08:36:51;;;;;;;;;;;;;;;;;;5049679;28;19924;-67
2023/07/15 08:39:17;;;;;;;;;;;;;;;;;;5049981;28;19932;-68
2023/07/15 08:41:44;;;;;;;;;;;;;;;;;;5049406;28;19925;-67
2023/07/15 08:44:12;;;;;;;;;;;;;;;;;;5052720;28;19928;-67
2023/07/15 08:46:40;;;;;;;;;;;;;;;;;;5053498;28;19932;-67
2023/07/15 08:49:07;;;;;;;;;;;;;;;;;;5053624;28;20378;-68
2023/07/15 08:51:35;;;;;;;;;;;;;;;;;;5053346;28;19931;-67
2023/07/15 08:54:03;;;;;;;;;;;;;;;;;;5053002;28;19925;-67
2023/07/15 08:56:30;;;;;;;;;;;;;;;;;;5053782;28;20375;-67
2023/07/15 08:58:57;;;;;;;;;;;;;;;;;;5053608;28;19925;-67
2023/07/15 09:01:24;;;;;;;;;;;;;;;;;;5053373;28;19925;-67
2023/07/15 09:03:50;;;;;;;;;;;;;;;;;;5053139;28;20409;-67
2023/07/15 09:06:18;;;;;;;;;;;;;;;;;;5053675;28;20294;-67
2023/07/15 09:08:50;;;;;;;;;;;;;;;;;;5053329;28;19935;-68
2023/07/15 09:11:16;;;;;;;;;;;;;;;;;;5053161;28;19931;-67
2023/07/15 09:13:43;;;;;;;;;;;;;;;;;;5051577;28;19925;-67
2023/07/15 09:16:10;;;;;;;;;;;;;;;;;;5053437;28;20410;-67
2023/07/15 09:18:38;;;;;;;;;;;;;;;;;;5052624;28;19932;-67
2023/07/15 09:21:09;;;;;;;;;;;;;;;;;;5052498;28;19925;-67
2023/07/15 09:23:38;;;;;;;;;;;;;;;;;;5053176;28;19925;-67
2023/07/15 09:26:05;;;;;;;;;;;;;;;;;;5053082;28;19955;-67
2023/07/15 09:28:32;;;;;;;;;;;;;;;;;;5053242;28;19925;-67
2023/07/15 09:30:59;;;;;;;;;;;;;;;;;;5052129;28;19924;-67
2023/07/15 09:33:29;;;;;;;;;;;;;;;;;;5053067;28;19925;-67
2023/07/15 09:35:56;;;;;;;;;;;;;;;;;;5052400;28;19925;-67
2023/07/15 09:38:23;;;;;;;;;;;;;;;;;;5053278;28;20377;-67
2023/07/15 09:40:51;;;;;;;;;;;;;;;;;;5052130;28;19925;-67
2023/07/15 09:43:17;;;;;;;;;;;;;;;;;;5053172;28;20355;-67
2023/07/15 09:45:45;;;;;;;;;;;;;;;;;;5052252;28;19928;-66
2023/07/15 09:48:12;;;;;;;;;;;;;;;;;;5079461;22;19928;-77
2023/07/15 09:50:39;;;;;;;;;;;;;;;;;;5077840;28;19931;-78
2023/07/15 09:53:06;;;;;;;;;;;;;;;;;;5077512;28;20150;-77
2023/07/15 09:55:32;;;;;;;;;;;;;;;;;;5076108;28;19975;-77
2023/07/15 09:58:03;;;;;;;;;;;;;;;;;;5077794;28;19928;-77
2023/07/15 10:00:31;;;;;;;;;;;;;;;;;;5077462;28;20307;-76
2023/07/15 10:02:59;;;;;;;;;;;;;;;;;;5081835;28;19968;-75
2023/07/15 10:05:26;;;;;;;;;;;;;;;;;;5077798;28;19924;-76
2023/07/15 10:07:53;;;;;;;;;;;;;;;;;;5077930;28;19931;-78
2023/07/15 10:10:20;;;;;;;;;;;;;;;;;;5078227;28;19928;-77
2023/07/15 10:12:47;;;;;;;;;;;;;;;;;;5077654;28;19947;-77
2023/07/15 10:15:15;;;;;;;;;;;;;;;;;;5075949;28;19924;-78
2023/07/15 10:17:41;;;;;;;;;;;;;;;;;;5076618;28;20372;-78
2023/07/15 10:20:11;;;;;;;;;;;;;;;;;;5076664;28;19924;-78
2023/07/15 10:22:38;;;;;;;;;;;;;;;;;;5077082;28;19924;-78
2023/07/15 10:25:07;;;;;;;;;;;;;;;;;;5076367;28;19925;-77
2023/07/15 10:27:34;;;;;;;;;;;;;;;;;;5075821;28;20103;-74
2023/07/15 10:30:26;;;;;;;;;;;;;;;;;;5079731;28;19929;-76
2023/07/15 10:33:09;;;;;;;;;;;;;;;;;;5073940;28;19925;-77
2023/07/15 10:35:36;;;;;;;;;;;;;;;;;;5073551;28;19924;-77
2023/07/15 10:38:02;;;;;;;;;;;;;;;;;;5072639;28;19931;-74
2023/07/15 10:40:38;;;;;;;;;;;;;;;;;;5073798;28;19924;-76
2023/07/15 10:43:07;;;;;;;;;;;;;;;;;;5074405;28;19925;-77
2023/07/15 10:45:41;;;;;;;;;;;;;;;;;;5073238;28;19924;-77
2023/07/15 10:48:09;;;;;;;;;;;;;;;;;;5072848;28;19930;-76
2023/07/15 10:50:36;;;;;;;;;;;;;;;;;;5072864;28;20011;-78
2023/07/15 10:53:17;;;;;;;;;;;;;;;;;;5071712;28;19931;-77
2023/07/15 10:55:44;;;;;;;;;;;;;;;;;;5071760;28;19924;-78
2023/07/15 10:58:10;;;;;;;;;;;;;;;;;;5072464;28;20286;-75
2023/07/15 11:00:38;;;;;;;;;;;;;;;;;;5070910;28;19924;-76
2023/07/15 11:03:05;;;;;;;;;;;;;;;;;;5071665;28;19937;-76
2023/07/15 11:05:31;;;;;;;;;;;;;;;;;;5071264;28;19924;-76
2023/07/15 11:07:58;;;;;;;;;;;;;;;;;;5071501;28;20394;-76
2023/07/15 11:10:32;;;;;;;;;;;;;;;;;;5072131;28;19925;-77
2023/07/15 11:12:58;;;;;;;;;;;;;;;;;;5072487;28;20011;-76
2023/07/15 11:15:28;;;;;;;;;;;;;;;;;;5071871;28;19924;-78
2023/07/15 11:20:45;;;;;;;;;;;;;;;;;;5045858;28;19931;-79
2023/07/15 11:23:12;;;;;;;;;;;;;;;;;;5071762;28;20290;-78
2023/07/15 11:25:38;;;;;;;;;;;;;;;;;;5072143;28;19925;-78
2023/07/15 11:28:05;;;;;;;;;;;;;;;;;;5072146;28;19931;-78
2023/07/15 11:30:34;;;;;;;;;;;;;;;;;;5072178;28;19925;-78
2023/07/15 11:33:03;;;;;;;;;;;;;;;;;;5072082;28;19929;-78
2023/07/15 11:35:30;;;;;;;;;;;;;;;;;;5071155;28;19924;-78
2023/07/15 11:37:59;;;;;;;;;;;;;;;;;;5070737;28;21705;-76
2023/07/15 11:40:25;;;;;;;;;;;;;;;;;;5070716;28;19935;-76
2023/07/15 11:42:51;;;;;;;;;;;;;;;;;;5070252;28;19947;-75
2023/07/15 11:45:18;;;;;;;;;;;;;;;;;;5070708;28;19925;-76
2023/07/15 11:47:44;;;;;;;;;;;;;;;;;;5070493;28;20297;-78
2023/07/15 11:50:13;;;;;;;;;;;;;;;;;;5070935;28;19930;-77
2023/07/15 11:52:40;;;;;;;;;;;;;;;;;;5070659;28;20593;-76
2023/07/15 11:55:07;;;;;;;;;;;;;;;;;;5070696;28;19932;-75
2023/07/15 11:57:34;;;;;;;;;;;;;;;;;;5070695;28;19931;-75
2023/07/15 12:00:00;;;;;;;;;;;;;;;;;;5070663;28;20023;-76
2023/07/15 12:02:26;;;;;;;;;;;;;;;;;;5070404;28;20022;-76
2023/07/15 12:04:55;;;;;;;;;;;;;;;;;;5070854;28;20014;-75
2023/07/15 12:07:22;;;;;;;;;;;;;;;;;;5070128;28;19935;-75
2023/07/15 12:10:04;;;;;;;;;;;;;;;;;;5070067;28;20001;-75
2023/07/15 12:12:30;;;;;;;;;;;;;;;;;;5071741;28;20353;-76
2023/07/15 12:14:56;;;;;;;;;;;;;;;;;;5071283;28;19943;-76
2023/07/15 12:17:23;;;;;;;;;;;;;;;;;;5070795;28;19931;-76
2023/07/15 12:19:49;;;;;;;;;;;;;;;;;;5074779;28;20175;-76
2023/07/15 12:22:16;;;;;;;;;;;;;;;;;;5075113;28;19931;-77
2023/07/15 12:24:44;;;;;;;;;;;;;;;;;;5074976;28;19974;-77
2023/07/15 12:27:10;;;;;;;;;;;;;;;;;;5074324;28;19935;-77
2023/07/15 12:29:36;;;;;;;;;;;;;;;;;;5074354;28;20424;-76
2023/07/15 12:32:03;;;;;;;;;;;;;;;;;;5075027;28;20317;-76
2023/07/15 12:34:29;;;;;;;;;;;;;;;;;;5076103;28;19932;-77
2023/07/15 12:36:58;;;;;;;;;;;;;;;;;;5075279;28;19925;-77
2023/07/15 12:39:24;;;;;;;;;;;;;;;;;;5075912;28;19925;-77
2023/07/15 12:41:52;;;;;;;;;;;;;;;;;;5075902;28;19928;-77
2023/07/15 12:44:18;;;;;;;;;;;;;;;;;;5075741;28;19925;-77
2023/07/15 12:46:45;;;;;;;;;;;;;;;;;;5076300;28;20381;-77
2023/07/15 12:49:11;;;;;;;;;;;;;;;;;;5076272;28;19966;-77
2023/07/15 12:51:37;;;;;;;;;;;;;;;;;;5074201;28;19924;-75
2023/07/15 12:54:04;;;;;;;;;;;;;;;;;;5074211;28;19925;-77
2023/07/15 12:56:30;;;;;;;;;;;;;;;;;;5073800;28;20413;-76
2023/07/15 12:58:58;;;;;;;;;;;;;;;;;;5074054;28;19947;-76
2023/07/15 13:01:24;;;;;;;;;;;;;;;;;;5073014;28;20007;-76
2023/07/15 13:03:51;;;;;;;;;;;;;;;;;;5073812;28;19935;-76
2023/07/15 13:06:17;;;;;;;;;;;;;;;;;;5073605;28;19935;-76
2023/07/15 13:08:44;;;;;;;;;;;;;;;;;;5074049;28;20434;-76
2023/07/15 13:11:10;;;;;;;;;;;;;;;;;;5073184;28;19928;-76
2023/07/15 13:13:36;;;;;;;;;;;;;;;;;;5074052;28;19924;-76
2023/07/15 13:16:05;;;;;;;;;;;;;;;;;;5073071;28;20408;-76
2023/07/15 13:18:31;;;;;;;;;;;;;;;;;;5073169;28;19924;-76
2023/07/15 13:20:58;;;;;;;;;;;;;;;;;;5072772;28;19925;-75
2023/07/15 13:23:24;;;;;;;;;;;;;;;;;;5073627;28;20015;-76
2023/07/15 13:25:50;;;;;;;;;;;;;;;;;;5071521;28;20295;-77
2023/07/15 13:28:17;;;;;;;;;;;;;;;;;;5071611;28;19931;-76
2023/07/15 13:30:43;;;;;;;;;;;;;;;;;;5070542;28;20416;-76
2023/07/15 13:33:11;;;;;;;;;;;;;;;;;;5072054;28;20010;-76
2023/07/15 13:35:37;;;;;;;;;;;;;;;;;;5073704;28;19924;-75
2023/07/15 13:38:04;;;;;;;;;;;;;;;;;;5072905;28;19924;-76
2023/07/15 13:40:30;;;;;;;;;;;;;;;;;;5072999;28;19974;-77
2023/07/15 13:42:57;;;;;;;;;;;;;;;;;;5072690;28;19925;-76
2023/07/15 13:45:23;;;;;;;;;;;;;;;;;;5072953;28;20435;-76
2023/07/15 13:47:52;;;;;;;;;;;;;;;;;;5072729;28;20223;-76
2023/07/15 13:50:19;;;;;;;;;;;;;;;;;;5072303;28;19925;-76
2023/07/15 13:52:46;;;;;;;;;;;;;;;;;;5073009;28;19924;-76
2023/07/15 13:55:13;;;;;;;;;;;;;;;;;;5072248;28;19925;-76
2023/07/15 13:57:39;;;;;;;;;;;;;;;;;;5073351;28;20003;-77
2023/07/15 14:00:06;;;;;;;;;;;;;;;;;;5071841;28;19971;-76
2023/07/15 14:02:33;;;;;;;;;;;;;;;;;;5071785;28;20275;-76
2023/07/15 14:05:00;;;;;;;;;;;;;;;;;;5071054;28;19924;-77
2023/07/15 14:07:27;;;;;;;;;;;;;;;;;;5072502;28;19931;-76
2023/07/15 14:09:54;;;;;;;;;;;;;;;;;;5071579;28;20308;-76
2023/07/15 14:12:20;;;;;;;;;;;;;;;;;;5072470;28;19934;-76
2023/07/15 14:14:46;;;;;;;;;;;;;;;;;;5072000;28;19990;-76
2023/07/15 14:17:13;;;;;;;;;;;;;;;;;;5071982;28;19930;-76
2023/07/15 14:19:39;;;;;;;;;;;;;;;;;;5079109;28;19924;-77
2023/07/15 14:22:06;;;;;;;;;;;;;;;;;;5093762;28;19970;-78
2023/07/15 14:24:36;;;;;;;;;;;;;;;;;;5079577;28;19975;-77
2023/07/15 14:27:03;;;;;;;;;;;;;;;;;;5073228;28;19924;-76
2023/07/15 14:29:29;;;;;;;;;;;;;;;;;;5072319;28;19924;-75
2023/07/15 14:31:56;;;;;;;;;;;;;;;;;;5073275;28;19930;-77
2023/07/15 14:34:22;;;;;;;;;;;;;;;;;;5079334;28;19928;-77
2023/07/15 14:36:48;;;;;;;;;;;;;;;;;;5072760;28;20238;-77
2023/07/15 14:39:15;;;;;;;;;;;;;;;;;;5073014;28;20023;-78
2023/07/15 14:41:43;;;;;;;;;;;;;;;;;;5072686;28;20431;-75
2023/07/15 14:44:09;;;;;;;;;;;;;;;;;;5073588;28;20185;-76
2023/07/15 14:46:35;;;;;;;;;;;;;;;;;;5073532;28;19946;-76
2023/07/15 14:49:02;;;;;;;;;;;;;;;;;;5089440;28;19935;-76
2023/07/15 14:51:28;;;;;;;;;;;;;;;;;;5092428;28;20007;-76
2023/07/15 14:53:55;;;;;;;;;;;;;;;;;;5092333;28;19930;-76
2023/07/15 14:56:21;;;;;;;;;;;;;;;;;;5091821;28;19924;-76
2023/07/15 14:58:49;;;;;;;;;;;;;;;;;;5092201;28;20043;-76
2023/07/15 15:01:16;;;;;;;;;;;;;;;;;;5091141;28;19924;-77
2023/07/15 15:03:42;;;;;;;;;;;;;;;;;;5089444;28;19967;-78
2023/07/15 15:06:09;;;;;;;;;;;;;;;;;;5070982;28;19930;-78
2023/07/15 15:08:35;;;;;;;;;;;;;;;;;;5071845;28;20327;-77
2023/07/15 15:11:01;;;;;;;;;;;;;;;;;;5071026;28;19934;-78
2023/07/15 15:13:28;;;;;;;;;;;;;;;;;;5071326;28;19930;-77
2023/07/15 15:15:55;;;;;;;;;;;;;;;;;;5071024;28;19975;-77
2023/07/15 15:18:24;;;;;;;;;;;;;;;;;;5070857;28;19928;-77
2023/07/15 15:20:50;;;;;;;;;;;;;;;;;;5071076;28;19964;-76
2023/07/15 15:23:17;;;;;;;;;;;;;;;;;;5070714;28;19947;-76
2023/07/15 15:25:44;;;;;;;;;;;;;;;;;;5071600;28;19924;-79
2023/07/15 15:28:10;;;;;;;;;;;;;;;;;;5071207;28;19925;-77
2023/07/15 15:30:37;;;;;;;;;;;;;;;;;;5072114;28;19925;-79
2023/07/15 15:33:05;;;;;;;;;;;;;;;;;;5071100;28;19931;-78
2023/07/15 15:35:31;;;;;;;;;;;;;;;;;;5072083;28;19951;-78
2023/07/15 15:37:57;;;;;;;;;;;;;;;;;;5070373;28;20297;-77
2023/07/15 15:40:24;;;;;;;;;;;;;;;;;;5071282;28;19930;-77
2023/07/15 15:42:50;;;;;;;;;;;;;;;;;;5071181;28;19928;-77
2023/07/15 15:45:17;;;;;;;;;;;;;;;;;;5071593;28;19924;-76
2023/07/15 15:47:43;;;;;;;;;;;;;;;;;;5072840;22;19992;-66
2023/07/15 15:50:11;;;;;;;;;;;;;;;;;;5031544;28;20302;-66
2023/07/15 15:52:38;;;;;;;;;;;;;;;;;;5030837;28;20011;-66
2023/07/15 15:55:05;;;;;;;;;;;;;;;;;;5032225;28;19925;-66
2023/07/15 15:57:31;;;;;;;;;;;;;;;;;;5032016;28;19929;-66
2023/07/15 15:59:58;;;;;;;;;;;;;;;;;;5030990;28;19925;-66
2023/07/15 16:02:24;;;;;;;;;;;;;;;;;;5034376;28;19926;-66
2023/07/15 16:04:51;;;;;;;;;;;;;;;;;;5030699;28;19936;-66
2023/07/15 16:07:19;;;;;;;;;;;;;;;;;;5030686;28;19979;-66
2023/07/15 16:09:45;;;;;;;;;;;;;;;;;;5030542;28;20343;-66
2023/07/15 16:12:12;;;;;;;;;;;;;;;;;;5031146;28;20021;-67
2023/07/15 16:14:38;;;;;;;;;;;;;;;;;;5030163;28;19925;-65
2023/07/15 16:17:05;;;;;;;;;;;;;;;;;;5030900;28;20363;-67
2023/07/15 16:19:31;;;;;;;;;;;;;;;;;;5030769;28;19960;-66
2023/07/15 16:21:59;;;;;;;;;;;;;;;;;;5030493;28;20309;-67
2023/07/15 16:24:27;;;;;;;;;;;;;;;;;;5030905;28;19966;-66
2023/07/15 16:26:53;;;;;;;;;;;;;;;;;;5030409;28;19929;-66
2023/07/15 16:29:20;;;;;;;;;;;;;;;;;;5031030;28;19929;-66
2023/07/15 16:31:47;;;;;;;;;;;;;;;;;;5030651;28;19925;-66
2023/07/15 16:34:13;;;;;;;;;;;;;;;;;;5031655;28;19935;-66
2023/07/15 16:36:40;;;;;;;;;;;;;;;;;;5030391;28;19932;-67
2023/07/15 16:39:06;;;;;;;;;;;;;;;;;;5031676;28;20298;-67
2023/07/15 16:41:34;;;;;;;;;;;;;;;;;;5030305;28;19925;-66
2023/07/15 16:44:01;;;;;;;;;;;;;;;;;;5030760;28;19925;-67
2023/07/15 16:46:27;;;;;;;;;;;;;;;;;;5030440;28;19925;-66
2023/07/15 16:48:53;;;;;;;;;;;;;;;;;;5030854;28;19933;-67